Time;durP1;ratioP1;P1;durP2;ratioP2;P2;SDS_P1;SDS_P2;PMS_P1;PMS_P2;Temp;Humidity;BMP_temperature;BMP_pressure;BME280_temperature;BME280_humidity;BME280_pressure;Samples;Min_cycle;Max_cycle;Signal;HPM_P1;HPM_P2
2023/10/23 00:02:19;;;;;;;15.82;8.98;;;;;;;10.80;100.00;100964.28;4934423;29;20047;-91
2023/10/23 00:04:45;;;;;;;16.38;9.13;;;;;;;10.78;100.00;100966.25;4949779;29;20027;-91
2023/10/23 00:07:10;;;;;;;18.70;9.45;;;;;;;10.79;100.00;100969.88;4924174;29;20489;-91
2023/10/23 00:09:36;;;;;;;31.35;9.55;;;;;;;10.69;100.00;100964.25;4931309;29;20028;-91
2023/10/23 00:12:02;;;;;;;21.58;9.20;;;;;;;10.67;100.00;100971.69;4956365;29;20046;-92
2023/10/23 00:14:27;;;;;;;15.27;9.07;;;;;;;10.60;100.00;100964.97;4957266;29;20032;-92
2023/10/23 00:16:53;;;;;;;20.77;9.18;;;;;;;10.65;100.00;100970.97;4955071;29;20035;-92
2023/10/23 00:19:19;;;;;;;21.55;9.07;;;;;;;10.64;100.00;100974.69;4926349;29;20038;-90
2023/10/23 00:21:45;;;;;;;26.50;10.10;;;;;;;10.64;100.00;100975.56;4956048;29;20052;-90
2023/10/23 00:24:10;;;;;;;19.42;9.98;;;;;;;10.56;100.00;100977.13;4923916;29;20433;-90
2023/10/23 00:26:36;;;;;;;23.70;9.02;;;;;;;10.55;100.00;100978.16;4939966;29;20039;-90
2023/10/23 00:29:02;;;;;;;18.52;9.25;;;;;;;10.51;100.00;100973.88;4942371;29;20035;-90
2023/10/23 00:31:28;;;;;;;18.27;8.82;;;;;;;10.43;100.00;100975.38;4937858;29;20528;-91
2023/10/23 00:33:53;;;;;;;16.45;8.55;;;;;;;10.36;100.00;100967.72;4930947;29;20041;-92
2023/10/23 00:36:20;;;;;;;31.25;11.05;;;;;;;10.36;100.00;100973.19;4922006;29;20032;-90
2023/10/23 00:38:46;;;;;;;19.25;8.95;;;;;;;10.34;100.00;100978.78;4954671;29;20119;-90
2023/10/23 00:41:11;;;;;;;20.75;8.75;;;;;;;10.33;100.00;100974.31;4936337;29;20056;-89
2023/10/23 00:43:38;;;;;;;18.70;8.95;;;;;;;10.29;100.00;100973.63;4928210;29;20023;-90
2023/10/23 00:46:12;;;;;;;20.75;8.88;;;;;;;10.23;100.00;100975.97;4939638;29;20035;-90
2023/10/23 00:48:39;;;;;;;19.67;8.77;;;;;;;10.26;100.00;100983.94;4939063;29;20035;-90
2023/10/23 00:51:06;;;;;;;26.60;8.75;;;;;;;10.21;100.00;100977.94;4940753;29;20035;-90
2023/10/23 00:53:37;;;;;;;17.55;9.35;;;;;;;10.23;100.00;100984.16;4943173;29;20031;-90
2023/10/23 00:56:07;;;;;;;19.85;8.60;;;;;;;10.19;100.00;100978.06;4943709;29;20059;-91
2023/10/23 00:58:41;;;;;;;17.00;8.95;;;;;;;10.23;100.00;100979.59;4927229;29;21816;-90
2023/10/23 01:01:13;;;;;;;16.67;8.35;;;;;;;10.23;100.00;100982.31;4956221;29;20023;-90
2023/10/23 01:03:39;;;;;;;34.00;8.65;;;;;;;10.24;100.00;100984.06;4942792;29;20004;-91
2023/10/23 01:06:06;;;;;;;21.52;8.25;;;;;;;10.11;100.00;100975.91;4952858;29;20035;-90
2023/10/23 01:08:32;;;;;;;25.90;8.23;;;;;;;10.09;100.00;100991.56;4961162;29;20046;-90
2023/10/23 01:10:58;;;;;;;18.05;8.55;;;;;;;10.05;100.00;100995.53;4971816;28;20047;-90
2023/10/23 01:13:25;;;;;;;22.80;9.85;;;;;;;10.04;100.00;100990.16;4952077;29;20039;-91
2023/10/23 01:15:51;;;;;;;17.48;8.70;;;;;;;9.99;100.00;100993.25;4966853;29;20027;-90
2023/10/23 01:18:18;;;;;;;17.02;7.90;;;;;;;9.99;100.00;100998.72;4965838;29;20034;-91
2023/10/23 01:20:44;;;;;;;18.02;7.88;;;;;;;9.92;100.00;101008.38;4944474;29;20079;-90
2023/10/23 01:23:10;;;;;;;18.13;8.32;;;;;;;9.90;100.00;101008.50;4950472;29;20027;-90
2023/10/23 01:25:36;;;;;;;16.17;8.25;;;;;;;9.92;100.00;101013.84;4937987;29;20417;-90
2023/10/23 01:28:02;;;;;;;18.00;8.10;;;;;;;9.88;100.00;101017.78;4935543;29;20063;-92
2023/10/23 01:30:28;;;;;;;23.02;8.98;;;;;;;9.85;100.00;101012.53;4928530;29;20367;-92
2023/10/23 01:32:54;;;;;;;19.83;8.80;;;;;;;9.88;100.00;101001.38;4939444;29;20046;-92
2023/10/23 01:35:19;;;;;;;23.40;8.75;;;;;;;9.79;100.00;101004.78;4940303;29;20035;-92
2023/10/23 01:37:47;;;;;;;18.02;8.52;;;;;;;9.82;100.00;101005.44;4955012;29;20019;-93
2023/10/23 01:40:13;;;;;;;18.98;8.52;;;;;;;9.90;100.00;100993.91;4942641;29;20123;-92
2023/10/23 01:42:40;;;;;;;23.88;8.77;;;;;;;9.88;100.00;100999.50;4964449;28;20077;-92
2023/10/23 01:45:06;;;;;;;14.75;8.23;;;;;;;9.77;100.00;100996.69;4934524;29;20031;-92
2023/10/23 01:47:31;;;;;;;27.63;7.72;;;;;;;9.73;100.00;100998.78;4942499;29;20035;-92
2023/10/23 01:49:57;;;;;;;23.60;8.40;;;;;;;9.70;100.00;100993.53;4941969;29;20035;-92
2023/10/23 01:52:23;;;;;;;18.63;8.75;;;;;;;9.72;100.00;101002.50;4925890;29;20397;-92
2023/10/23 01:54:52;;;;;;;18.15;7.82;;;;;;;9.58;100.00;100999.91;4941760;29;20050;-91
2023/10/23 01:57:18;;;;;;;24.80;8.27;;;;;;;9.54;100.00;101001.09;4940901;29;20078;-92
2023/10/23 01:59:43;;;;;;;17.02;8.40;;;;;;;9.47;100.00;101003.41;4941617;29;20094;-92
2023/10/23 02:02:09;;;;;;;13.70;7.53;;;;;;;9.46;100.00;101003.50;4951518;29;20059;-91
2023/10/23 02:04:38;;;;;;;19.58;7.70;;;;;;;9.41;100.00;101009.31;4945170;29;20027;-91
2023/10/23 02:07:05;;;;;;;17.20;7.43;;;;;;;9.38;100.00;100999.50;4931711;29;20035;-92
2023/10/23 02:09:31;;;;;;;17.77;8.13;;;;;;;9.34;100.00;100992.47;4936756;29;20047;-92
2023/10/23 02:11:57;;;;;;;19.70;8.40;;;;;;;9.47;100.00;101000.66;4949122;29;20031;-92
2023/10/23 02:14:22;;;;;;;17.55;8.60;;;;;;;9.34;100.00;101005.28;4928293;29;20094;-91
2023/10/23 02:16:47;;;;;;;23.48;8.07;;;;;;;9.11;100.00;100996.84;4933762;28;20024;-91
2023/10/23 02:19:13;;;;;;;20.23;8.25;;;;;;;9.26;100.00;101008.56;4907963;29;20027;-92
2023/10/23 02:21:38;;;;;;;14.65;8.38;;;;;;;9.27;100.00;101002.13;4948520;29;20389;-92
2023/10/23 02:24:04;;;;;;;23.60;8.98;;;;;;;9.32;100.00;101010.84;4937313;29;20038;-91
2023/10/23 02:26:30;;;;;;;15.25;8.02;;;;;;;9.25;100.00;101008.66;4921912;29;20040;-91
2023/10/23 02:28:57;;;;;;;29.95;8.80;;;;;;;9.19;100.00;101015.44;4936343;29;20139;-92
2023/10/23 02:31:23;;;;;;;19.73;8.75;;;;;;;9.23;100.00;101017.00;4956576;29;20058;-93
2023/10/23 02:33:49;;;;;;;17.48;8.30;;;;;;;9.07;100.00;101016.28;4938176;29;20123;-91
2023/10/23 02:36:15;;;;;;;17.33;7.78;;;;;;;9.14;100.00;101029.41;4931160;29;20199;-91
2023/10/23 02:38:44;;;;;;;21.08;7.70;;;;;;;9.16;100.00;101024.72;4940847;29;20038;-91
2023/10/23 02:41:09;;;;;;;20.10;8.68;;;;;;;9.15;100.00;101024.81;4955556;28;20031;-92
2023/10/23 02:43:35;;;;;;;19.90;7.97;;;;;;;9.17;100.00;101023.75;4940390;29;20031;-91
2023/10/23 02:46:01;;;;;;;23.10;9.27;;;;;;;9.20;100.00;101023.53;4956634;29;20053;-91
2023/10/23 02:48:27;;;;;;;24.58;8.18;;;;;;;9.06;100.00;101029.09;4924775;29;20164;-91
2023/10/23 02:50:56;;;;;;;16.10;7.65;;;;;;;9.07;100.00;101030.84;4935828;29;20032;-91
2023/10/23 02:53:22;;;;;;;17.23;8.63;;;;;;;8.93;100.00;101025.47;4958100;28;20166;-92
2023/10/23 02:55:48;;;;;;;26.00;9.07;;;;;;;8.92;100.00;101023.72;4927973;29;20049;-91
2023/10/23 02:58:15;;;;;;;22.45;8.52;;;;;;;8.98;100.00;101029.63;4925765;29;20134;-91
2023/10/23 03:00:42;;;;;;;23.23;8.45;;;;;;;8.93;100.00;101029.06;4940650;29;20505;-91
2023/10/23 03:03:12;;;;;;;24.55;8.88;;;;;;;8.98;100.00;101035.06;4937298;29;20111;-93
2023/10/23 03:05:38;;;;;;;26.13;7.93;;;;;;;8.85;100.00;101027.84;4938170;29;20034;-91
2023/10/23 03:08:05;;;;;;;22.70;8.57;;;;;;;8.85;100.00;101039.66;4954655;29;20758;-91
2023/10/23 03:10:32;;;;;;;22.10;8.13;;;;;;;8.93;100.00;101040.00;4933651;29;20035;-91
2023/10/23 03:12:58;;;;;;;26.92;8.80;;;;;;;8.92;100.00;101041.00;4956797;29;20086;-93
2023/10/23 03:15:23;;;;;;;21.00;8.02;;;;;;;8.83;100.00;101039.75;4923788;29;20019;-90
2023/10/23 03:17:51;;;;;;;20.88;7.38;;;;;;;8.64;100.00;101033.78;4955265;29;20066;-90
2023/10/23 03:20:16;;;;;;;22.58;8.23;;;;;;;8.74;100.00;101039.50;4940444;29;20450;-89
2023/10/23 03:22:42;;;;;;;19.88;7.75;;;;;;;8.77;100.00;101020.19;4932202;29;20027;-91
2023/10/23 03:25:08;;;;;;;21.33;8.93;;;;;;;8.80;100.00;101017.25;4968970;29;20102;-90
2023/10/23 03:27:34;;;;;;;19.58;8.70;;;;;;;8.71;100.00;101024.22;4959536;28;20055;-91
2023/10/23 03:30:00;;;;;;;19.85;8.10;;;;;;;8.63;100.00;101022.00;4945021;29;20038;-91
2023/10/23 03:32:25;;;;;;;16.63;7.10;;;;;;;8.59;100.00;101033.25;4940829;29;20042;-91
2023/10/23 03:34:51;;;;;;;13.13;6.80;;;;;;;8.68;100.00;101032.63;4940180;29;20043;-90
2023/10/23 03:37:16;;;;;;;12.20;6.55;;;;;;;8.65;100.00;101027.38;4936902;29;20065;-90
2023/10/23 03:39:42;;;;;;;32.47;7.28;;;;;;;8.59;100.00;101031.41;4931833;29;20031;-92
2023/10/23 03:42:10;;;;;;;11.52;5.55;;;;;;;8.61;100.00;101032.16;4939307;29;20023;-92
2023/10/23 03:44:36;;;;;;;10.65;6.15;;;;;;;8.63;100.00;101029.34;4908768;29;20032;-92
2023/10/23 03:47:02;;;;;;;15.23;6.38;;;;;;;8.60;100.00;101029.53;4935997;29;20038;-90
2023/10/23 03:49:29;;;;;;;13.90;6.07;;;;;;;8.45;100.00;101031.47;4931442;28;20039;-90
2023/10/23 03:51:56;;;;;;;12.77;6.20;;;;;;;8.35;100.00;101033.03;4926015;29;20039;-89
2023/10/23 03:54:21;;;;;;;11.43;6.15;;;;;;;8.49;100.00;101049.34;4954280;29;20039;-89
2023/10/23 03:56:47;;;;;;;14.52;7.10;;;;;;;8.57;100.00;101036.06;4923553;29;20489;-90
2023/10/23 03:59:12;;;;;;;13.40;6.68;;;;;;;8.39;100.00;101035.44;4939007;29;20035;-90
2023/10/23 04:01:38;;;;;;;15.85;6.55;;;;;;;8.19;100.00;101036.75;4927379;28;20111;-90
2023/10/23 04:04:03;;;;;;;14.05;6.40;;;;;;;8.21;100.00;101053.91;4955118;29;20047;-89
2023/10/23 04:06:29;;;;;;;12.60;6.88;;;;;;;8.26;100.00;101043.59;4939036;29;20091;-90
2023/10/23 04:08:54;;;;;;;13.35;6.70;;;;;;;8.28;100.00;101051.66;4927519;29;20098;-91
2023/10/23 04:11:20;;;;;;;14.93;7.07;;;;;;;8.37;100.00;101045.56;4938808;29;20402;-92
2023/10/23 04:13:45;;;;;;;20.50;7.13;;;;;;;8.47;100.00;101040.41;4939352;29;20027;-91
2023/10/23 04:16:12;;;;;;;14.60;6.50;;;;;;;8.32;100.00;101035.97;4938921;29;20046;-90
2023/10/23 04:18:37;;;;;;;13.68;6.55;;;;;;;8.41;100.00;101036.22;4928436;29;20067;-91
2023/10/23 04:21:04;;;;;;;15.73;6.90;;;;;;;8.46;100.00;101041.38;4924209;29;20150;-91
2023/10/23 04:23:30;;;;;;;15.02;6.03;;;;;;;8.48;100.00;101044.91;4940887;29;20027;-90
2023/10/23 04:25:59;;;;;;;13.30;5.57;;;;;;;8.56;100.00;101044.34;4954695;29;20078;-93
2023/10/23 04:28:25;;;;;;;7.30;4.78;;;;;;;8.69;100.00;101044.41;4936196;29;20466;-90
2023/10/23 04:30:51;;;;;;;12.65;4.63;;;;;;;8.68;100.00;101045.41;4930186;29;20038;-89
2023/10/23 04:33:21;;;;;;;8.55;4.88;;;;;;;8.51;100.00;101055.63;4935717;29;20034;-89
2023/10/23 04:35:48;;;;;;;9.73;5.40;;;;;;;8.54;100.00;101059.97;4938516;29;20031;-90
2023/10/23 04:38:13;;;;;;;9.60;5.38;;;;;;;8.57;100.00;101057.03;4937808;29;20790;-89
2023/10/23 04:40:42;;;;;;;11.75;5.90;;;;;;;8.53;100.00;101050.91;4954649;29;20035;-89
2023/10/23 04:43:07;;;;;;;9.73;5.78;;;;;;;8.58;100.00;101051.47;4949257;29;20175;-90
2023/10/23 04:45:34;;;;;;;11.68;5.90;;;;;;;8.42;100.00;101048.00;4937750;29;20114;-91
2023/10/23 04:48:00;;;;;;;11.63;5.95;;;;;;;8.54;100.00;101041.72;4910190;29;20035;-90
2023/10/23 04:50:26;;;;;;;12.18;6.43;;;;;;;8.57;100.00;101037.94;4939752;29;20039;-93
2023/10/23 04:52:51;;;;;;;12.43;7.07;;;;;;;8.53;100.00;101045.47;4922760;29;20038;-89
2023/10/23 04:55:17;;;;;;;11.98;5.13;;;;;;;8.52;100.00;101043.69;4938526;29;20039;-89
2023/10/23 04:57:42;;;;;;;11.45;4.63;;;;;;;8.52;100.00;101046.44;4925310;29;20094;-90
2023/10/23 05:00:08;;;;;;;18.67;5.65;;;;;;;8.40;100.00;101039.06;4931062;29;20055;-93
2023/10/23 05:02:34;;;;;;;12.10;5.10;;;;;;;8.45;100.00;101045.97;4926358;28;20040;-92
2023/10/23 05:04:59;;;;;;;19.75;5.47;;;;;;;8.45;100.00;101039.66;4904400;29;20107;-90
2023/10/23 05:07:25;;;;;;;21.63;5.18;;;;;;;8.36;100.00;101027.47;4950193;29;20039;-90
2023/10/23 05:09:50;;;;;;;8.25;4.32;;;;;;;8.27;100.00;101030.81;4940486;29;20099;-90
2023/10/23 05:12:15;;;;;;;48.65;5.40;;;;;;;8.28;100.00;101044.34;4936261;28;20027;-91
2023/10/23 05:14:41;;;;;;;87.10;6.07;;;;;;;8.27;100.00;101042.59;4952993;29;20051;-90
2023/10/23 05:17:06;;;;;;;34.20;6.80;;;;;;;8.33;100.00;101041.31;4943462;29;20192;-92
2023/10/23 05:19:32;;;;;;;8.85;5.03;;;;;;;8.42;100.00;101039.81;4926080;29;20032;-89
2023/10/23 05:21:57;;;;;;;8.20;5.07;;;;;;;8.35;100.00;101036.63;4937165;29;20085;-90
2023/10/23 05:24:23;;;;;;;8.25;5.28;;;;;;;8.39;100.00;101040.03;4919421;29;20044;-90
2023/10/23 05:26:49;;;;;;;12.00;5.50;;;;;;;8.37;100.00;101040.13;4939450;29;20401;-92
2023/10/23 05:29:16;;;;;;;10.10;5.78;;;;;;;8.42;100.00;101037.09;4945141;29;20023;-92
2023/10/23 05:31:41;;;;;;;11.77;6.18;;;;;;;8.48;100.00;101036.72;4919814;29;20035;-92
2023/10/23 05:34:06;;;;;;;71.90;8.25;;;;;;;8.36;100.00;101027.47;4952628;29;20035;-91
2023/10/23 05:36:34;;;;;;;28.45;5.88;;;;;;;8.45;100.00;101028.72;4943906;29;20445;-91
2023/10/23 05:38:59;;;;;;;15.85;5.75;;;;;;;8.39;100.00;101024.50;4942570;29;20023;-90
2023/10/23 05:41:24;;;;;;;47.63;5.50;;;;;;;8.38;100.00;101039.16;4942232;29;20090;-91
2023/10/23 05:43:50;;;;;;;7.35;4.28;;;;;;;8.27;100.00;101037.13;4939094;29;20549;-91
2023/10/23 05:46:20;;;;;;;6.75;4.55;;;;;;;8.29;100.00;101045.22;4938944;29;20042;-90
2023/10/23 05:48:46;;;;;;;14.35;4.72;;;;;;;8.25;100.00;101035.50;4923551;29;20482;-91
2023/10/23 05:51:11;;;;;;;39.90;6.03;;;;;;;8.24;100.00;101040.06;4929258;29;20038;-90
2023/10/23 05:53:37;;;;;;;11.30;5.15;;;;;;;8.05;100.00;101034.97;4942394;28;20035;-92
2023/10/23 05:56:06;;;;;;;5.25;4.28;;;;;;;8.12;100.00;101042.72;4941344;29;20055;-91
2023/10/23 05:58:35;;;;;;;9.18;4.18;;;;;;;8.04;100.00;101035.06;4940777;29;20036;-90
2023/10/23 06:01:08;;;;;;;14.75;5.63;;;;;;;8.05;100.00;101039.53;4935204;29;20105;-90
2023/10/23 06:03:34;;;;;;;9.20;5.53;;;;;;;8.13;100.00;101039.03;4957782;29;20027;-89
2023/10/23 06:05:59;;;;;;;11.95;6.25;;;;;;;8.12;100.00;101042.72;4926412;29;20031;-89
2023/10/23 06:08:25;;;;;;;13.27;6.25;;;;;;;8.14;100.00;101038.94;4941966;29;20135;-89
2023/10/23 06:10:51;;;;;;;14.63;6.05;;;;;;;8.13;100.00;101037.16;4918680;29;20035;-93
2023/10/23 06:13:16;;;;;;;15.75;5.63;;;;;;;8.08;100.00;101037.50;4923448;29;20066;-94
2023/10/23 06:15:42;;;;;;;12.52;6.03;;;;;;;8.24;100.00;101036.47;4920334;29;20046;-93
2023/10/23 06:18:07;;;;;;;9.18;4.70;;;;;;;8.09;100.00;101033.78;4939139;29;20027;-93
2023/10/23 06:20:33;;;;;;;9.95;4.45;;;;;;;7.98;100.00;101028.13;4945468;29;20063;-94
2023/10/23 06:22:59;;;;;;;79.30;7.88;;;;;;;8.19;100.00;101035.91;4939708;29;20035;-92
2023/10/23 06:25:27;;;;;;;76.88;7.38;;;;;;;8.18;100.00;101036.88;4943059;29;20409;-94
2023/10/23 06:27:52;;;;;;;10.35;4.22;;;;;;;8.18;100.00;101045.94;4963988;29;20557;-94
2023/10/23 06:30:19;;;;;;;5.72;4.05;;;;;;;8.15;100.00;101034.34;4922488;29;20051;-94
2023/10/23 06:32:45;;;;;;;12.55;3.42;;;;;;;8.19;100.00;101050.41;4942913;29;20023;-95
2023/10/23 06:35:10;;;;;;;32.03;3.78;;;;;;;8.06;100.00;101046.72;4926613;29;20039;-93
2023/10/23 06:37:37;;;;;;;8.02;3.40;;;;;;;8.05;100.00;101034.97;4928069;29;20405;-91
2023/10/23 06:40:04;;;;;;;8.27;3.63;;;;;;;8.18;100.00;101045.03;4936982;29;20031;-93
2023/10/23 06:42:30;;;;;;;12.52;5.10;;;;;;;8.27;100.00;101050.78;4927580;29;20054;-95
2023/10/23 07:54:08;;;;;;;16.10;7.13;;;;;;;10.38;100.00;101046.00;787493;23;20327;-88
2023/10/23 07:56:33;;;;;;;16.88;6.60;;;;;;;10.39;100.00;101044.13;4914192;29;20048;-85
2023/10/23 07:58:59;;;;;;;20.58;6.60;;;;;;;10.59;100.00;101054.47;4881510;29;20044;-88
2023/10/23 08:01:25;;;;;;;15.82;6.50;;;;;;;10.53;100.00;101040.38;4923923;29;20050;-85
2023/10/23 08:03:50;;;;;;;20.23;6.60;;;;;;;10.71;100.00;101047.16;4887818;29;20047;-88
2023/10/23 08:06:17;;;;;;;16.45;5.75;;;;;;;10.55;100.00;101032.91;4888011;29;20032;-87
2023/10/23 08:08:44;;;;;;;12.48;5.50;;;;;;;10.71;100.00;101032.59;4880636;29;20036;-86
2023/10/23 08:11:12;;;;;;;13.68;5.47;;;;;;;10.84;100.00;101036.16;4914021;29;20028;-88
2023/10/23 08:13:39;;;;;;;18.67;4.75;;;;;;;11.05;100.00;101025.34;4912625;29;20154;-87
2023/10/23 08:16:04;;;;;;;15.93;6.18;;;;;;;11.01;100.00;101021.13;4917889;29;20511;-86
2023/10/23 08:18:36;;;;;;;21.65;5.40;;;;;;;11.15;100.00;101015.44;4914587;29;20091;-92
2023/10/23 08:21:15;;;;;;;17.23;6.05;;;;;;;11.15;100.00;101018.19;4905146;29;20040;-87
2023/10/23 08:23:46;;;;;;;15.57;4.78;;;;;;;11.27;100.00;101024.53;4902099;29;20034;-88
2023/10/23 08:26:12;;;;;;;20.15;5.60;;;;;;;11.22;100.00;101026.78;4916860;29;20044;-91
2023/10/23 08:28:40;;;;;;;24.77;5.50;;;;;;;11.22;100.00;101029.53;4910356;29;20105;-94
2023/10/23 08:31:05;;;;;;;15.90;5.32;;;;;;;11.24;100.00;101027.53;4910133;29;20101;-95
2023/10/23 08:33:31;;;;;;;20.70;6.53;;;;;;;11.40;100.00;101032.66;4921943;29;20035;-95
2023/10/23 08:41:12;;;;;;;12.65;4.38;;;;;;;11.56;100.00;101032.31;5688732;23;20046;-94
2023/10/23 08:43:40;;;;;;;11.77;4.63;;;;;;;11.52;100.00;101031.66;4955971;28;20781;-95
2023/10/23 08:46:08;;;;;;;25.42;4.50;;;;;;;11.71;100.00;101036.56;4967744;28;20039;-93
2023/10/23 08:48:37;;;;;;;18.10;4.65;;;;;;;11.66;100.00;101024.19;4960323;28;20532;-95
2023/10/23 09:04:02;;;;;;;25.25;4.57;;;;;;;12.57;100.00;101031.31;5943271;23;20058;-96
2023/10/23 09:06:32;;;;;;;18.90;3.65;;;;;;;12.67;100.00;101032.31;4988231;28;20070;-96
2023/10/23 09:08:59;;;;;;;14.38;3.78;;;;;;;12.68;100.00;101023.03;4949038;28;20445;-96
2023/10/23 09:11:41;;;;;;;11.02;4.05;;;;;;;12.52;100.00;101021.72;4957060;28;20042;-92
2023/10/23 09:14:07;;;;;;;14.48;3.58;;;;;;;12.86;100.00;101019.72;4952567;28;20069;-88
2023/10/23 09:16:33;;;;;;;17.52;3.90;;;;;;;13.05;100.00;101018.97;4924987;28;20039;-92
2023/10/23 09:18:59;;;;;;;20.08;4.47;;;;;;;13.05;100.00;101024.47;4931412;28;20121;-96
2023/10/23 09:21:25;;;;;;;17.50;3.65;;;;;;;13.31;100.00;101021.31;4940458;28;20030;-93
2023/10/23 09:23:55;;;;;;;15.60;4.35;;;;;;;12.92;100.00;101013.69;4962553;28;20104;-95
2023/10/23 09:26:24;;;;;;;20.23;4.00;;;;;;;13.44;100.00;101005.50;4956580;28;20105;-95
2023/10/23 09:28:52;;;;;;;16.95;4.22;;;;;;;13.65;100.00;101004.63;4945130;28;20500;-88
2023/10/23 09:31:19;;;;;;;16.23;5.05;;;;;;;13.47;100.00;101005.25;4926021;28;20033;-91
2023/10/23 09:33:46;;;;;;;25.05;4.43;;;;;;;13.78;100.00;101000.59;4957618;28;20093;-95
2023/10/23 09:36:12;;;;;;;22.85;4.30;;;;;;;13.43;100.00;100992.78;4940838;28;20035;-90
2023/10/23 09:38:41;;;;;;;19.23;6.32;;;;;;;13.51;100.00;100995.72;4957412;28;20117;-91
2023/10/23 09:41:11;;;;;;;13.63;4.18;;;;;;;13.53;100.00;100990.94;4957104;28;20031;-88
2023/10/23 09:43:46;;;;;;;20.75;5.45;;;;;;;13.34;100.00;100988.97;4925253;28;20567;-89
2023/10/23 09:46:12;;;;;;;17.35;4.55;;;;;;;13.44;100.00;100977.16;4961325;28;20027;-90
2023/10/23 09:48:43;;;;;;;12.40;4.28;;;;;;;13.35;100.00;100982.47;4938111;28;20039;-87
2023/10/23 09:51:16;;;;;;;19.35;4.40;;;;;;;13.31;100.00;100975.44;4949439;28;20042;-88
2023/10/23 09:53:49;;;;;;;16.02;5.50;;;;;;;13.16;100.00;100979.56;4954585;28;20035;-87
2023/10/23 09:56:20;;;;;;;20.10;5.93;;;;;;;12.92;100.00;100983.47;4947596;28;20093;-89
2023/10/23 09:58:52;;;;;;;9.98;4.65;;;;;;;13.16;100.00;100985.94;4969117;28;20046;-89
2023/10/23 10:01:22;;;;;;;29.80;6.00;;;;;;;13.00;100.00;100980.03;4937878;28;20045;-87
2023/10/23 10:03:48;;;;;;;25.17;6.15;;;;;;;13.24;100.00;100972.38;4953404;28;20297;-87
2023/10/23 10:06:21;;;;;;;19.00;5.25;;;;;;;13.21;100.00;100980.88;4930401;28;20387;-89
2023/10/23 10:08:52;;;;;;;16.23;5.70;;;;;;;13.30;100.00;100972.81;4979132;28;20489;-85
2023/10/23 10:11:20;;;;;;;20.85;5.40;;;;;;;13.27;100.00;100979.50;4961229;28;20117;-93
2023/10/23 10:13:47;;;;;;;18.40;5.47;;;;;;;13.38;100.00;100970.28;4928087;28;20299;-91
2023/10/23 10:16:14;;;;;;;18.15;5.18;;;;;;;13.63;100.00;100966.22;4944531;28;20501;-87
2023/10/23 10:18:42;;;;;;;23.67;6.45;;;;;;;13.67;100.00;100958.56;4928876;28;20031;-88
2023/10/23 10:21:12;;;;;;;26.02;5.65;;;;;;;13.73;100.00;100950.63;4960292;28;20034;-90
2023/10/23 10:23:39;;;;;;;16.63;5.43;;;;;;;13.54;100.00;100967.06;4961699;28;20444;-87
2023/10/23 10:26:05;;;;;;;33.72;6.00;;;;;;;13.63;100.00;100946.97;4945246;28;20034;-87
2023/10/23 10:28:31;;;;;;;17.02;5.50;;;;;;;13.65;100.00;100952.34;4941592;28;20088;-87
2023/10/23 10:30:56;;;;;;;23.98;6.75;;;;;;;13.60;100.00;100955.50;4939919;28;20129;-87
2023/10/23 10:33:31;;;;;;;25.45;6.28;;;;;;;13.68;100.00;100949.31;4984902;28;20035;-86
2023/10/23 10:36:00;;;;;;;21.88;5.80;;;;;;;13.51;100.00;100948.97;4958339;28;20033;-86
2023/10/23 10:38:27;;;;;;;18.63;5.75;;;;;;;13.65;100.00;100942.19;4975031;28;20019;-87
2023/10/23 10:41:03;;;;;;;14.73;5.43;;;;;;;13.70;100.00;100931.63;4927864;28;20110;-87
2023/10/23 10:43:40;;;;;;;16.02;5.28;;;;;;;13.86;100.00;100935.75;4943672;28;20031;-87
2023/10/23 10:46:22;;;;;;;25.17;6.28;;;;;;;13.69;100.00;100932.66;4960570;28;20039;-86
2023/10/23 10:48:49;;;;;;;15.32;5.00;;;;;;;13.93;100.00;100932.28;4958060;28;20039;-87
2023/10/23 10:51:27;;;;;;;20.33;5.65;;;;;;;13.88;100.00;100926.31;4969775;28;20058;-87
2023/10/23 10:54:00;;;;;;;22.13;5.53;;;;;;;13.78;100.00;100920.78;4953697;28;20122;-87
2023/10/23 10:56:26;;;;;;;17.83;5.95;;;;;;;13.70;100.00;100928.03;4954196;28;20493;-87
2023/10/23 10:58:53;;;;;;;19.65;6.43;;;;;;;13.92;100.00;100926.91;4937804;29;20042;-91
2023/10/23 11:01:21;;;;;;;16.92;5.68;;;;;;;14.17;100.00;100914.50;4934835;28;20098;-85
2023/10/23 11:03:47;;;;;;;19.55;5.80;;;;;;;14.10;100.00;100916.97;4946575;28;20030;-87
2023/10/23 11:06:12;;;;;;;20.15;5.28;;;;;;;13.98;100.00;100912.56;4944055;28;20055;-88
2023/10/23 11:08:40;;;;;;;16.88;5.22;;;;;;;13.96;100.00;100904.47;4942943;28;20412;-88
2023/10/23 11:11:06;;;;;;;22.10;5.78;;;;;;;13.96;100.00;100898.97;4949578;28;20034;-87
2023/10/23 11:13:32;;;;;;;13.50;5.57;;;;;;;13.75;100.00;100885.28;4947217;28;20543;-89
2023/10/23 11:15:59;;;;;;;14.75;6.03;;;;;;;13.91;100.00;100884.75;4959401;28;20054;-87
2023/10/23 11:18:27;;;;;;;18.23;6.18;;;;;;;14.03;100.00;100879.97;4955237;29;20110;-86
2023/10/23 11:20:58;;;;;;;13.63;5.53;;;;;;;13.67;100.00;100876.88;4983686;28;20015;-89
2023/10/23 11:23:24;;;;;;;24.67;7.25;;;;;;;13.66;100.00;100866.91;4940565;28;20031;-89
2023/10/23 11:25:50;;;;;;;23.20;7.03;;;;;;;13.67;100.00;100867.75;4925265;28;20049;-89
2023/10/23 11:28:19;;;;;;;16.48;6.00;;;;;;;13.81;100.00;100871.97;4935463;29;20035;-89
2023/10/23 11:30:46;;;;;;;20.73;6.95;;;;;;;13.95;100.00;100857.81;4951584;28;20031;-89
2023/10/23 11:33:12;;;;;;;20.65;6.75;;;;;;;13.87;100.00;100855.78;4942763;28;20102;-89
2023/10/23 11:35:39;;;;;;;16.98;5.53;;;;;;;13.82;100.00;100847.06;4927113;28;20027;-88
2023/10/23 11:38:05;;;;;;;33.35;5.95;;;;;;;13.86;100.00;100845.78;4950953;28;20086;-88
2023/10/23 11:40:33;;;;;;;23.48;5.95;;;;;;;13.93;100.00;100840.56;4926043;28;20031;-89
2023/10/23 11:42:58;;;;;;;20.58;5.13;;;;;;;13.83;100.00;100837.81;4968196;28;20030;-89
2023/10/23 11:45:24;;;;;;;15.38;5.65;;;;;;;13.78;100.00;100829.97;4943429;28;20030;-88
2023/10/23 11:47:53;;;;;;;18.30;5.50;;;;;;;13.93;100.00;100824.91;4950774;28;20031;-88
2023/10/23 11:50:19;;;;;;;17.63;5.82;;;;;;;13.89;100.00;100825.38;4926886;28;20031;-89
2023/10/23 11:52:47;;;;;;;17.13;7.15;;;;;;;14.08;100.00;100825.34;4976297;28;20061;-88
2023/10/23 11:55:14;;;;;;;17.67;7.45;;;;;;;13.84;100.00;100814.78;4979744;28;20089;-89
2023/10/23 11:57:50;;;;;;;17.58;6.93;;;;;;;14.09;100.00;100807.81;4966013;28;20034;-89
2023/10/23 13:36:33;;;;;;;21.10;11.65;;;;;;;13.29;100.00;100690.63;5815039;23;20140;-96
2023/10/23 14:45:08;;;;;;;15.88;6.57;;;;;;;13.48;100.00;100558.66;5278377;23;20042;-94
2023/10/23 14:47:35;;;;;;;11.20;6.03;;;;;;;13.49;100.00;100563.13;4954236;29;20047;-92
2023/10/23 14:50:05;;;;;;;10.45;5.75;;;;;;;13.41;100.00;100543.72;4939116;28;20023;-90
2023/10/23 14:52:31;;;;;;;11.70;6.00;;;;;;;13.41;100.00;100541.88;4922864;29;20161;-90
2023/10/23 14:54:59;;;;;;;10.77;5.90;;;;;;;13.39;100.00;100532.03;4943905;29;20038;-94
2023/10/23 15:00:01;;;;;;;15.95;7.22;;;;;;;13.44;100.00;100523.34;5235898;23;20530;-92
2023/10/23 16:37:23;;;;;;;32.38;14.63;;;;;;;12.74;100.00;100490.53;5563196;23;20099;-93
2023/10/23 16:39:49;;;;;;;33.05;13.50;;;;;;;12.64;100.00;100483.19;4966191;28;20091;-93
2023/10/23 16:42:15;;;;;;;32.88;13.82;;;;;;;12.57;100.00;100475.66;4943114;28;20043;-94
2023/10/23 16:44:42;;;;;;;39.40;14.77;;;;;;;12.54;100.00;100478.69;4972131;28;20028;-94
2023/10/23 16:47:12;;;;;;;33.22;14.27;;;;;;;12.47;100.00;100459.16;4938372;28;20059;-95
2023/10/23 16:49:41;;;;;;;31.90;14.05;;;;;;;12.44;100.00;100454.81;4951197;28;20528;-92
2023/10/23 16:52:06;;;;;;;35.75;14.77;;;;;;;12.48;100.00;100449.94;4959315;28;20031;-93
2023/10/23 16:54:31;;;;;;;37.58;14.25;;;;;;;12.38;100.00;100446.28;4924706;29;20042;-95
2023/10/23 16:57:01;;;;;;;37.30;14.07;;;;;;;12.38;100.00;100427.97;4954912;28;20046;-93
2023/10/23 16:59:27;;;;;;;29.95;14.07;;;;;;;12.33;100.00;100422.03;4959690;28;20038;-95
2023/10/23 17:01:54;;;;;;;31.20;14.57;;;;;;;12.32;100.00;100421.16;4964901;28;20117;-94